createdAt,value
2019-03-31T00:01:07.694Z,65.48
2019-03-31T00:03:29.028Z,65.52
2019-03-31T00:06:00.596Z,65.41
2019-03-31T00:08:32.145Z,65.71
2019-03-31T00:11:03.931Z,65.80
2019-03-31T00:13:35.519Z,65.90
2019-03-31T00:16:08.177Z,65.86
2019-03-31T00:18:39.739Z,65.79
2019-03-31T00:21:11.269Z,65.59
2019-03-31T00:23:42.820Z,65.43
2019-03-31T00:26:14.410Z,65.33
2019-03-31T00:28:45.917Z,65.29
2019-03-31T00:31:22.323Z,65.12
2019-03-31T00:33:50.891Z,65.02
2019-03-31T00:36:22.554Z,65.14
2019-03-31T00:38:54.167Z,65.56
2019-03-31T00:41:25.684Z,65.58
2019-03-31T00:43:57.299Z,65.32
2019-03-31T00:46:28.871Z,65.40
2019-03-31T00:49:00.409Z,65.51
2019-03-31T00:51:32.006Z,65.49
2019-03-31T00:54:03.524Z,65.96
2019-03-31T00:56:35.041Z,66.33
2019-03-31T00:59:06.561Z,66.00
2019-03-31T01:01:40.807Z,66.11
2019-03-31T01:04:12.782Z,66.08
2019-03-31T01:06:44.712Z,66.14
2019-03-31T01:09:27.633Z,66.23
2019-03-31T01:11:59.167Z,66.39
2019-03-31T01:14:31.780Z,66.08
2019-03-31T01:17:03.301Z,65.89
2019-03-31T01:19:35.070Z,65.65
2019-03-31T01:22:06.680Z,65.98
2019-03-31T01:24:38.283Z,65.80
2019-03-31T01:27:10.454Z,65.75
2019-03-31T01:29:42.136Z,66.13
2019-03-31T01:32:13.692Z,65.98
2019-03-31T01:34:45.343Z,65.65
2019-03-31T01:37:20.182Z,65.54
2019-03-31T01:39:51.163Z,65.39
2019-03-31T01:42:22.693Z,65.30
2019-03-31T01:44:54.282Z,64.96
2019-03-31T01:47:25.871Z,64.77
2019-03-31T01:49:57.573Z,64.50
2019-03-31T01:52:29.119Z,64.46
2019-03-31T01:55:00.626Z,64.37
2019-03-31T01:57:32.164Z,64.16
2019-03-31T02:00:05.120Z,64.13
2019-03-31T02:02:36.728Z,63.98
2019-03-31T02:05:08.684Z,63.82
2019-03-31T02:07:40.265Z,63.96
2019-03-31T02:10:11.843Z,64.05
2019-03-31T02:12:43.432Z,63.99
2019-03-31T02:15:15.037Z,63.98
2019-03-31T02:17:46.648Z,64.07
2019-03-31T02:20:18.185Z,64.09
2019-03-31T02:22:49.741Z,63.91
2019-03-31T02:25:21.243Z,63.73
2019-03-31T02:27:52.777Z,63.49
2019-03-31T02:30:24.321Z,63.37
2019-03-31T02:32:55.840Z,63.43
2019-03-31T02:35:27.403Z,63.29
2019-03-31T02:37:58.915Z,63.30
2019-03-31T02:40:30.462Z,63.26
2019-03-31T02:43:02.000Z,63.01
2019-03-31T02:45:33.537Z,62.97
2019-03-31T02:48:05.162Z,63.08
2019-03-31T02:50:48.189Z,62.98
2019-03-31T02:53:20.253Z,62.84
2019-03-31T02:55:52.039Z,62.88
2019-03-31T02:58:24.533Z,62.83
2019-03-31T03:00:56.204Z,62.85
2019-03-31T03:03:27.937Z,62.79
2019-03-31T03:06:00.273Z,62.92
2019-03-31T03:08:31.805Z,62.60
2019-03-31T03:11:03.331Z,62.56
2019-03-31T03:13:36.134Z,62.35
2019-03-31T03:16:14.960Z,62.09
2019-03-31T03:18:47.805Z,62.06
2019-03-31T03:21:23.719Z,62.23
2019-03-31T03:23:53.176Z,62.26
2019-03-31T03:26:24.762Z,62.26
2019-03-31T03:28:56.275Z,62.77
2019-03-31T03:31:27.916Z,62.29
2019-03-31T03:33:59.603Z,61.91
2019-03-31T03:36:31.257Z,61.92
2019-03-31T03:39:02.937Z,61.77
2019-03-31T03:41:34.475Z,61.98
2019-03-31T03:44:06.001Z,62.05
2019-03-31T03:46:37.546Z,62.55
2019-03-31T03:49:09.330Z,62.65
2019-03-31T03:51:41.126Z,62.37
2019-03-31T03:54:13.696Z,62.02
2019-03-31T03:56:45.231Z,61.71
2019-03-31T03:59:16.765Z,61.47
2019-03-31T04:01:48.343Z,61.48
2019-03-31T04:04:19.869Z,61.21
2019-03-31T04:06:51.411Z,60.90
2019-03-31T04:09:22.941Z,60.75
2019-03-31T04:11:54.464Z,60.68
2019-03-31T04:14:26.009Z,60.50
2019-03-31T04:16:57.678Z,60.27
2019-03-31T04:19:29.295Z,60.31
2019-03-31T04:22:00.833Z,60.04
2019-03-31T04:24:34.021Z,60.20
2019-03-31T04:27:05.593Z,60.57
2019-03-31T04:29:37.180Z,60.99
2019-03-31T04:32:08.703Z,61.31
2019-03-31T04:34:40.317Z,61.02
2019-03-31T04:37:11.862Z,60.55
2019-03-31T04:39:43.388Z,60.16
2019-03-31T04:42:14.972Z,60.22
2019-03-31T04:44:46.541Z,60.07
2019-03-31T04:47:18.052Z,60.60
2019-03-31T04:49:49.589Z,60.53
2019-03-31T04:52:21.119Z,61.08
2019-03-31T04:54:52.661Z,60.79
2019-03-31T04:57:24.195Z,60.68
2019-03-31T04:59:55.713Z,60.44
2019-03-31T05:02:27.482Z,60.50
2019-03-31T05:04:59.172Z,60.00
2019-03-31T05:07:30.693Z,60.01
2019-03-31T05:10:02.308Z,59.70
2019-03-31T05:12:33.849Z,59.61
2019-03-31T05:15:05.555Z,59.19
2019-03-31T05:17:37.087Z,59.13
2019-03-31T05:20:09.295Z,59.03
2019-03-31T05:22:40.902Z,58.97
2019-03-31T05:25:12.918Z,58.65
2019-03-31T05:27:44.916Z,58.62
2019-03-31T05:30:16.557Z,58.30
2019-03-31T05:32:48.157Z,58.07
2019-03-31T05:35:19.815Z,58.04
2019-03-31T05:37:52.226Z,57.99
2019-03-31T05:40:23.759Z,58.13
2019-03-31T05:42:55.867Z,57.70
2019-03-31T05:45:27.386Z,57.70
2019-03-31T05:47:58.901Z,57.42
2019-03-31T05:50:30.623Z,57.27
2019-03-31T05:53:02.449Z,57.51
2019-03-31T05:55:34.096Z,57.38
2019-03-31T05:58:05.742Z,57.22
2019-03-31T06:00:41.406Z,57.29
2019-03-31T06:03:12.960Z,57.47
2019-03-31T06:05:44.596Z,57.42
2019-03-31T06:08:17.099Z,57.98
2019-03-31T06:10:49.307Z,57.69
2019-03-31T06:13:22.100Z,57.24
2019-03-31T06:15:54.080Z,56.81
2019-03-31T06:18:25.650Z,57.42
2019-03-31T06:20:58.697Z,56.57
2019-03-31T06:23:30.319Z,56.04
2019-03-31T06:26:01.849Z,55.43
2019-03-31T06:28:33.630Z,55.40
2019-03-31T06:31:05.338Z,56.27
2019-03-31T06:33:37.096Z,56.67
2019-03-31T06:36:08.910Z,57.08
2019-03-31T06:38:40.483Z,56.88
2019-03-31T06:41:12.080Z,57.08
2019-03-31T06:43:43.615Z,56.86
2019-03-31T06:46:15.624Z,57.36
2019-03-31T06:48:47.141Z,57.38
2019-03-31T06:51:18.718Z,57.80
2019-03-31T06:53:50.376Z,57.99
2019-03-31T06:56:21.916Z,57.74
2019-03-31T06:58:53.520Z,57.64
2019-03-31T07:01:25.903Z,56.84
2019-03-31T07:03:57.511Z,55.87
2019-03-31T07:06:29.123Z,55.74
2019-03-31T07:09:02.462Z,55.10
2019-03-31T07:11:35.342Z,54.69
2019-03-31T07:14:06.877Z,55.06
2019-03-31T07:16:38.911Z,55.17
2019-03-31T07:19:10.940Z,53.69
2019-03-31T07:21:42.884Z,53.49
2019-03-31T07:24:14.817Z,53.24
2019-03-31T07:26:47.062Z,52.90
2019-03-31T07:29:19.261Z,52.66
2019-03-31T07:31:50.921Z,53.80
2019-03-31T07:34:42.700Z,53.70
2019-03-31T07:37:14.210Z,53.88
2019-03-31T07:39:46.323Z,53.95
2019-03-31T07:42:18.207Z,53.83
2019-03-31T07:44:50.236Z,53.21
2019-03-31T07:47:23.094Z,53.39
2019-03-31T07:49:54.755Z,53.34
2019-03-31T07:52:26.284Z,52.86
2019-03-31T07:54:57.808Z,52.61
2019-03-31T08:00:19.318Z,52.59
2019-03-31T08:02:52.467Z,52.03
2019-03-31T08:05:33.155Z,51.59
2019-03-31T08:07:57.998Z,51.68
2019-03-31T08:10:29.551Z,51.63
2019-03-31T08:13:01.132Z,52.20
2019-03-31T08:15:33.335Z,52.08
2019-03-31T08:18:07.975Z,53.00
2019-03-31T08:20:39.208Z,53.39
2019-03-31T08:23:10.905Z,52.68
2019-03-31T08:25:43.023Z,53.04
2019-03-31T08:28:15.261Z,52.71
2019-03-31T08:30:47.907Z,53.79
2019-03-31T08:33:19.555Z,54.22
2019-03-31T08:35:51.062Z,52.97
2019-03-31T08:38:24.615Z,54.14
2019-03-31T08:40:56.862Z,54.32
2019-03-31T08:43:28.398Z,55.15
2019-03-31T08:46:00.060Z,56.42
2019-03-31T08:48:31.683Z,55.59
2019-03-31T08:51:03.902Z,55.85
2019-03-31T08:53:35.444Z,55.03
2019-03-31T08:56:08.705Z,54.96
2019-03-31T08:58:40.600Z,54.46
2019-03-31T09:01:13.943Z,53.83
2019-03-31T09:03:46.376Z,53.09
2019-03-31T09:06:18.374Z,53.49
2019-03-31T09:08:49.976Z,54.26
2019-03-31T09:11:21.664Z,53.67
2019-03-31T09:13:53.299Z,54.68
2019-03-31T09:16:24.986Z,55.69
2019-03-31T09:18:56.562Z,54.94
2019-03-31T09:21:28.088Z,54.52
2019-03-31T09:23:59.622Z,54.02
2019-03-31T09:26:31.282Z,55.33
2019-03-31T09:29:02.824Z,54.50
2019-03-31T09:31:34.359Z,54.46
2019-03-31T09:34:05.894Z,54.75
2019-03-31T09:36:37.431Z,54.47
2019-03-31T09:39:08.962Z,54.42
2019-03-31T09:41:40.505Z,53.07
2019-03-31T09:44:12.540Z,52.83
2019-03-31T09:46:44.047Z,53.36
2019-03-31T09:49:15.582Z,54.25
2019-03-31T09:51:50.140Z,54.49
2019-03-31T09:54:21.981Z,52.70
2019-03-31T09:57:05.381Z,54.08
2019-03-31T09:59:37.128Z,52.54
2019-03-31T10:02:08.779Z,53.27
2019-03-31T10:04:40.948Z,53.19
2019-03-31T10:07:12.641Z,52.78
2019-03-31T10:09:50.700Z,53.08
2019-03-31T10:12:27.782Z,52.51
2019-03-31T10:14:59.419Z,52.24
2019-03-31T10:17:31.326Z,51.77
2019-03-31T10:20:02.838Z,51.78
2019-03-31T10:22:36.149Z,52.43
2019-03-31T10:25:13.305Z,51.27
2019-03-31T10:27:45.307Z,51.30
2019-03-31T10:30:21.814Z,50.82
2019-03-31T10:32:53.898Z,51.30
2019-03-31T10:35:26.502Z,50.93
2019-03-31T10:37:59.120Z,49.95
2019-03-31T10:40:32.171Z,50.11
2019-03-31T10:43:05.399Z,48.60
2019-03-31T10:45:37.292Z,49.42
2019-03-31T10:48:20.315Z,49.49
2019-03-31T10:50:43.651Z,49.23
2019-03-31T10:53:18.629Z,48.08
2019-03-31T10:55:50.225Z,48.24
2019-03-31T10:58:21.896Z,48.08
2019-03-31T11:00:53.611Z,47.68
2019-03-31T11:03:25.142Z,48.24
2019-03-31T11:05:56.947Z,48.81
2019-03-31T11:08:28.583Z,48.74
2019-03-31T11:11:02.996Z,48.71
2019-03-31T11:13:34.604Z,48.74
2019-03-31T11:16:07.188Z,47.53
2019-03-31T11:18:38.846Z,47.98
2019-03-31T11:21:11.990Z,48.14
2019-03-31T11:23:43.747Z,48.00
2019-03-31T11:26:15.256Z,47.84
2019-03-31T11:28:46.791Z,47.25
2019-03-31T11:31:18.325Z,47.04
2019-03-31T11:33:50.357Z,46.92
2019-03-31T11:36:22.022Z,47.78
2019-03-31T11:38:53.572Z,47.90
2019-03-31T11:41:25.087Z,48.55
2019-03-31T11:43:56.859Z,47.70
2019-03-31T11:46:28.602Z,48.45
2019-03-31T11:49:00.292Z,48.12
2019-03-31T11:51:33.423Z,46.94
2019-03-31T11:54:05.265Z,47.42
2019-03-31T11:56:37.581Z,47.96
2019-03-31T11:59:11.025Z,48.42
2019-03-31T12:01:42.867Z,48.54
2019-03-31T12:04:14.472Z,47.72
2019-03-31T12:06:46.306Z,47.84
2019-03-31T12:09:17.986Z,47.67
2019-03-31T12:11:50.129Z,47.03
2019-03-31T12:14:21.619Z,46.83
2019-03-31T12:16:53.209Z,46.17
2019-03-31T12:19:24.739Z,46.12
2019-03-31T12:21:57.237Z,47.58
2019-03-31T12:24:28.876Z,48.75
2019-03-31T12:27:00.739Z,48.83
2019-03-31T12:29:33.102Z,48.39
2019-03-31T12:32:04.667Z,48.79
2019-03-31T12:34:36.170Z,49.17
2019-03-31T12:37:07.804Z,49.45
2019-03-31T12:39:39.520Z,49.55
2019-03-31T12:42:11.255Z,49.72
2019-03-31T12:44:43.101Z,49.16
2019-03-31T12:47:14.669Z,48.86
2019-03-31T12:49:46.322Z,48.23
2019-03-31T12:52:17.903Z,48.05
2019-03-31T12:54:49.381Z,47.60
2019-03-31T12:57:23.807Z,46.57
2019-03-31T12:59:55.902Z,46.74
2019-03-31T13:02:28.750Z,45.42
2019-03-31T13:05:03.195Z,45.51
2019-03-31T13:07:36.079Z,45.08
2019-03-31T13:10:07.895Z,45.12
2019-03-31T13:12:39.512Z,46.19
2019-03-31T13:15:12.539Z,45.87
2019-03-31T13:17:44.113Z,46.09
2019-03-31T13:20:15.634Z,46.27
2019-03-31T13:22:47.244Z,45.51
2019-03-31T13:25:18.782Z,44.47
2019-03-31T13:27:51.510Z,44.33
2019-03-31T13:30:23.324Z,44.25
2019-03-31T13:32:55.611Z,44.49
2019-03-31T13:35:29.533Z,43.97
2019-03-31T13:38:10.817Z,44.24
2019-03-31T13:40:35.026Z,43.60
2019-03-31T13:43:06.525Z,43.51
2019-03-31T13:45:38.062Z,44.30
2019-03-31T13:48:09.583Z,43.82
2019-03-31T13:50:41.346Z,44.02
2019-03-31T13:53:16.145Z,43.81
2019-03-31T13:55:46.333Z,42.44
2019-03-31T13:58:23.323Z,42.56
2019-03-31T14:00:57.145Z,41.63
2019-03-31T14:03:30.146Z,42.42
2019-03-31T14:06:02.168Z,42.08
2019-03-31T14:08:33.823Z,41.33
2019-03-31T14:11:05.664Z,41.02
2019-03-31T14:13:37.424Z,40.28
2019-03-31T14:16:09.056Z,39.35
2019-03-31T14:18:43.997Z,39.61
2019-03-31T14:21:15.747Z,39.29
2019-03-31T14:23:47.370Z,38.50
2019-03-31T14:26:18.883Z,39.37
2019-03-31T14:28:51.261Z,39.23
2019-03-31T14:31:23.497Z,39.17
2019-03-31T14:33:55.590Z,38.61
2019-03-31T14:36:27.121Z,38.75
2019-03-31T14:38:59.341Z,38.37
2019-03-31T14:41:31.892Z,38.90
2019-03-31T14:44:04.079Z,37.61
2019-03-31T14:46:35.661Z,37.50
2019-03-31T14:49:07.567Z,37.89
2019-03-31T14:51:39.080Z,36.61
2019-03-31T14:54:10.621Z,37.33
2019-03-31T14:56:42.137Z,37.08
2019-03-31T14:59:14.009Z,37.59
2019-03-31T15:01:46.027Z,36.81
2019-03-31T15:04:17.697Z,36.19
2019-03-31T15:06:49.346Z,35.31
2019-03-31T15:09:21.240Z,34.68
2019-03-31T15:11:53.945Z,34.81
2019-03-31T15:14:25.818Z,34.40
2019-03-31T15:16:57.538Z,33.91
2019-03-31T15:19:31.383Z,34.68
2019-03-31T15:22:02.969Z,34.02
2019-03-31T15:24:34.623Z,33.99
2019-03-31T15:27:06.261Z,33.54
2019-03-31T15:29:37.800Z,34.08
2019-03-31T15:32:09.357Z,33.81
2019-03-31T15:34:41.054Z,33.04
2019-03-31T15:37:13.252Z,32.48
2019-03-31T15:39:45.263Z,33.62
2019-03-31T15:42:16.855Z,32.76
2019-03-31T15:44:48.403Z,32.92
2019-03-31T15:47:19.984Z,33.65
2019-03-31T15:49:52.384Z,33.44
2019-03-31T15:52:25.345Z,33.44
2019-03-31T15:54:56.825Z,33.82
2019-03-31T15:57:31.523Z,34.65
2019-03-31T16:00:03.223Z,34.51
2019-03-31T16:02:34.903Z,34.97
2019-03-31T16:05:12.837Z,34.66
2019-03-31T16:07:48.271Z,34.48
2019-03-31T16:10:19.917Z,34.80
2019-03-31T16:12:53.035Z,35.16
2019-03-31T16:15:25.582Z,35.46
2019-03-31T16:17:58.849Z,33.47
2019-03-31T16:20:30.610Z,34.43
2019-03-31T16:23:05.457Z,33.90
2019-03-31T16:25:41.485Z,34.53
2019-03-31T16:28:13.216Z,33.81
2019-03-31T16:30:44.741Z,33.99
2019-03-31T16:33:17.826Z,34.28
2019-03-31T16:35:49.337Z,32.79
2019-03-31T16:38:21.044Z,32.39
2019-03-31T16:40:52.570Z,31.61
2019-03-31T16:43:24.078Z,31.69
2019-03-31T16:45:55.982Z,31.17
2019-03-31T16:48:28.144Z,31.23
2019-03-31T16:50:59.658Z,30.70
2019-03-31T16:53:31.240Z,31.47
2019-03-31T16:56:02.762Z,31.00
2019-03-31T16:58:35.182Z,31.30
2019-03-31T17:01:06.910Z,31.28
2019-03-31T17:03:39.523Z,31.58
2019-03-31T17:06:11.590Z,31.97
2019-03-31T17:08:43.717Z,32.00
2019-03-31T17:11:15.681Z,32.17
2019-03-31T17:13:47.267Z,32.51
2019-03-31T17:16:18.847Z,33.06
2019-03-31T17:18:54.406Z,33.65
2019-03-31T17:21:25.992Z,33.30
2019-03-31T17:23:57.742Z,33.87
2019-03-31T17:26:32.702Z,33.89
2019-03-31T17:29:04.542Z,34.32
2019-03-31T17:31:36.227Z,34.77
2019-03-31T17:34:08.222Z,34.74
2019-03-31T17:36:39.753Z,34.89
2019-03-31T17:39:11.545Z,35.68
2019-03-31T17:42:06.472Z,34.35
2019-03-31T17:44:37.792Z,32.07
2019-03-31T17:47:09.411Z,31.64
2019-03-31T17:49:41.020Z,31.57
2019-03-31T17:52:12.890Z,32.25
2019-03-31T17:54:44.406Z,32.03
2019-03-31T17:57:16.102Z,32.05
2019-03-31T17:59:47.604Z,31.45
2019-03-31T18:02:19.505Z,31.25
2019-03-31T18:04:51.098Z,30.71
2019-03-31T18:07:23.169Z,31.34
2019-03-31T18:09:54.843Z,30.19
2019-03-31T18:12:26.890Z,30.25
2019-03-31T18:14:58.457Z,30.17
2019-03-31T18:17:30.060Z,30.10
2019-03-31T18:20:01.571Z,30.15
2019-03-31T18:22:34.363Z,30.35
2019-03-31T18:25:09.012Z,30.47
2019-03-31T18:27:42.347Z,30.67
2019-03-31T18:30:13.911Z,30.95
2019-03-31T18:32:47.508Z,31.08
2019-03-31T18:35:20.466Z,31.35
2019-03-31T18:37:52.040Z,31.82
2019-03-31T18:40:34.352Z,32.04
2019-03-31T18:42:57.529Z,32.39
2019-03-31T18:45:29.578Z,32.95
2019-03-31T18:48:01.573Z,32.91
2019-03-31T18:50:33.343Z,33.59
2019-03-31T18:53:06.463Z,33.95
2019-03-31T18:55:54.543Z,34.47
2019-03-31T18:58:30.414Z,35.28
2019-03-31T19:01:19.133Z,35.67
2019-03-31T19:04:02.406Z,36.02
2019-03-31T19:06:38.456Z,36.68
2019-03-31T19:09:14.298Z,37.04
2019-03-31T19:12:03.475Z,37.22
2019-03-31T19:14:38.293Z,37.65
2019-03-31T19:17:17.558Z,38.00
2019-03-31T19:19:53.424Z,38.59
2019-03-31T19:22:43.411Z,38.81
2019-03-31T19:25:25.664Z,39.68
2019-03-31T19:28:07.665Z,39.65
2019-03-31T19:30:55.349Z,39.92
2019-03-31T19:33:31.786Z,40.23
2019-03-31T19:36:14.685Z,40.41
2019-03-31T19:38:48.941Z,40.74
2019-03-31T19:41:31.105Z,41.11
2019-03-31T19:44:20.934Z,41.20
2019-03-31T19:46:54.559Z,41.54
2019-03-31T19:49:40.670Z,41.63
2019-03-31T19:52:11.999Z,41.95
2019-03-31T19:54:45.161Z,41.86
2019-03-31T19:57:21.004Z,42.06
2019-03-31T20:00:01.507Z,42.36
2019-03-31T20:02:39.355Z,42.74
2019-03-31T20:05:15.549Z,43.13
2019-03-31T20:08:05.487Z,43.26
2019-03-31T20:10:44.680Z,43.46
2019-03-31T20:13:35.950Z,43.83
2019-03-31T20:16:09.330Z,43.90
2019-03-31T20:18:45.767Z,44.03
2019-03-31T20:21:32.204Z,44.21
2019-03-31T20:24:03.249Z,44.16
2019-03-31T20:26:46.632Z,44.20
2019-03-31T20:29:19.799Z,44.43
2019-03-31T20:31:52.946Z,44.61
2019-03-31T20:34:38.782Z,44.87
2019-03-31T20:37:18.078Z,44.94
2019-03-31T20:39:57.037Z,45.38
2019-03-31T20:42:30.034Z,45.52
2019-03-31T20:45:01.769Z,45.76
2019-03-31T20:47:34.577Z,45.85
2019-03-31T20:50:07.263Z,45.80
2019-03-31T20:52:38.855Z,45.96
2019-03-31T20:55:16.442Z,46.24
2019-03-31T20:57:44.060Z,46.40
2019-03-31T21:00:16.941Z,46.79
2019-03-31T21:02:48.488Z,47.01
2019-03-31T21:05:20.401Z,47.18
2019-03-31T21:07:52.790Z,47.30
2019-03-31T21:10:25.023Z,47.49
2019-03-31T21:12:56.562Z,47.81
2019-03-31T21:15:28.163Z,47.96
2019-03-31T21:17:59.682Z,48.23
2019-03-31T21:20:31.908Z,48.31
2019-03-31T21:23:03.505Z,48.42
2019-03-31T21:25:36.945Z,48.40
2019-03-31T21:28:08.533Z,48.40
2019-03-31T21:30:40.055Z,48.48
2019-03-31T21:33:11.620Z,48.45
2019-03-31T21:35:43.741Z,48.56
2019-03-31T21:38:15.580Z,48.86
2019-03-31T21:40:48.563Z,49.04
2019-03-31T21:43:20.311Z,49.29
2019-03-31T21:45:51.841Z,49.35
2019-03-31T21:48:23.360Z,49.35
2019-03-31T21:50:54.892Z,49.51
2019-03-31T21:53:26.982Z,49.77
2019-03-31T21:55:58.627Z,49.97
2019-03-31T21:58:30.985Z,50.77
2019-03-31T22:01:02.508Z,50.98
2019-03-31T22:03:34.098Z,50.96
2019-03-31T22:06:05.695Z,51.36
2019-03-31T22:08:37.198Z,51.35
2019-03-31T22:11:09.461Z,51.12
2019-03-31T22:13:40.995Z,51.31
2019-03-31T22:16:12.515Z,51.45
2019-03-31T22:18:44.782Z,51.49
2019-03-31T22:21:16.284Z,51.63
2019-03-31T22:23:57.689Z,51.83
2019-03-31T22:26:23.741Z,51.78
2019-03-31T22:28:55.618Z,51.86
2019-03-31T22:31:28.080Z,51.95
2019-03-31T22:33:59.646Z,52.04
2019-03-31T22:36:31.544Z,52.39
2019-03-31T22:39:04.539Z,52.47
2019-03-31T22:41:36.486Z,52.51
2019-03-31T22:44:08.706Z,52.71
2019-03-31T22:46:53.787Z,52.77
2019-03-31T22:49:13.729Z,52.97
2019-03-31T22:51:45.236Z,53.05
2019-03-31T22:54:18.143Z,53.01
2019-03-31T22:56:49.983Z,53.36
2019-03-31T22:59:21.663Z,53.45
2019-03-31T23:01:53.181Z,53.86
2019-03-31T23:04:24.773Z,53.94
2019-03-31T23:06:56.418Z,53.69
2019-03-31T23:09:28.143Z,53.73
2019-03-31T23:12:00.121Z,53.88
2019-03-31T23:14:31.644Z,53.74
2019-03-31T23:17:04.012Z,53.73
2019-03-31T23:19:35.671Z,53.87
2019-03-31T23:22:07.318Z,54.12
2019-03-31T23:24:39.183Z,53.93
2019-03-31T23:27:10.739Z,53.86
2019-03-31T23:29:42.272Z,53.97
2019-03-31T23:32:13.943Z,53.94
2019-03-31T23:34:45.438Z,54.22
2019-03-31T23:37:16.972Z,54.00
2019-03-31T23:39:48.900Z,54.10
2019-03-31T23:42:20.664Z,53.92
2019-03-31T23:44:53.391Z,53.71
2019-03-31T23:47:26.778Z,53.44
2019-03-31T23:49:58.963Z,53.61
2019-03-31T23:52:31.639Z,54.06
2019-03-31T23:55:03.156Z,54.00
2019-03-31T23:57:41.418Z,53.70
